Hartford, Michigan
Current Conditions -  °F | °C
As of 2:55 PM on Saturday 25 Oct 2014 (Local Time) from KLWA Reporting Station
Clear Clear  
Wind Chill: 64°   Ceiling: Unl
Heat Index: 64°   Visibility: 10mi
Dew Point: 47°   Wind: 18mph
Humidity: 55%   Direction: 290°WNW
Pressure: 29.88"   Gusts: NA
Location:  42.21°N, 86.17°W
Report Text: KLWA 251855Z AUTO 29016KT 10SM CLR 18/09 A2988 RMK AO2 T01770085
Loading
Personal Weather Stations






























Interactive Weather Map
Tropical Storm Tracking
New forecast layout! Learn more

10-Day Weather Forecast

Advertisements
Track Severe Weather on mobile